Time;durP1;ratioP1;P1;durP2;ratioP2;P2;SDS_P1;SDS_P2;PMS_P1;PMS_P2;Temp;Humidity;BMP_temperature;BMP_pressure;BME280_temperature;BME280_humidity;BME280_pressure;Samples;Min_cycle;Max_cycle;Signal;HPM_P1;HPM_P2
2023/01/27 00:01:04;;;;;;;64.10;18.67;;;2.40;99.90;;;;;;5049703;28;20025;-47
2023/01/27 00:03:29;;;;;;;64.38;19.95;;;2.50;99.90;;;;;;5048569;28;20433;-48
2023/01/27 00:05:55;;;;;;;52.50;18.10;;;2.50;99.90;;;;;;5048993;28;20028;-47
2023/01/27 00:08:20;;;;;;;63.80;18.58;;;2.50;99.90;;;;;;5048253;28;20029;-48
2023/01/27 00:13:25;;;;;;;55.80;18.52;;;2.50;99.90;;;;;;5048209;28;20029;-47
2023/01/27 00:13:32;;;;;;;62.78;18.00;;;2.50;99.90;;;;;;5049598;28;20484;-51
2023/01/27 00:15:58;;;;;;;57.20;18.77;;;2.50;99.90;;;;;;5051235;28;20115;-48
2023/01/27 00:18:24;;;;;;;48.92;18.00;;;2.50;99.90;;;;;;5053367;28;20048;-47
2023/01/27 00:26:18;;;;;;;59.50;19.05;;;2.50;99.90;;;;;;5053085;28;20043;-47
2023/01/27 00:28:46;;;;;;;52.47;16.70;;;2.50;99.90;;;;;;5053490;28;20328;-47
2023/01/27 00:34:00;;;;;;;46.35;16.88;;;2.50;99.90;;;;;;5053818;28;20031;-47
2023/01/27 00:36:28;;;;;;;54.67;17.35;;;2.50;99.90;;;;;;5052982;28;20032;-47
2023/01/27 00:38:54;;;;;;;43.13;16.55;;;2.50;99.90;;;;;;5053026;28;20056;-48
2023/01/27 00:41:20;;;;;;;52.63;16.98;;;2.50;99.90;;;;;;5052985;28;20473;-48
2023/01/27 00:43:46;;;;;;;42.35;14.77;;;2.50;99.90;;;;;;5053085;28;20021;-47
2023/01/27 00:46:13;;;;;;;39.00;14.57;;;2.50;99.90;;;;;;5052744;28;20100;-48
2023/01/27 00:48:38;;;;;;;45.00;16.77;;;2.50;99.90;;;;;;5053229;28;20017;-47
2023/01/27 00:51:04;;;;;;;42.78;14.15;;;2.60;99.90;;;;;;5052719;28;20052;-48
2023/01/27 00:53:30;;;;;;;51.03;17.17;;;2.50;99.90;;;;;;5052750;28;20025;-47
2023/01/27 00:55:57;;;;;;;41.28;15.38;;;2.60;99.90;;;;;;5050981;28;20478;-47
2023/01/27 00:58:24;;;;;;;42.40;14.75;;;2.50;99.90;;;;;;5052921;28;20021;-47
2023/01/27 01:00:55;;;;;;;48.63;17.00;;;2.60;99.90;;;;;;5052810;28;20482;-48
2023/01/27 01:03:22;;;;;;;48.03;16.52;;;2.60;99.90;;;;;;5053137;28;20025;-49
2023/01/27 01:05:48;;;;;;;52.58;16.17;;;2.60;99.90;;;;;;5052131;28;20372;-47
2023/01/27 01:08:14;;;;;;;41.50;16.02;;;2.60;99.90;;;;;;5052825;28;20033;-48
2023/01/27 01:10:39;;;;;;;40.17;15.43;;;2.60;99.90;;;;;;5052583;28;20390;-48
2023/01/27 01:13:10;;;;;;;42.40;15.15;;;2.60;99.90;;;;;;5052792;28;20671;-47
2023/01/27 01:15:38;;;;;;;40.17;15.43;;;2.60;99.90;;;;;;5052210;28;20037;-48
2023/01/27 01:18:04;;;;;;;49.78;17.65;;;2.60;99.90;;;;;;5052408;28;20142;-48
2023/01/27 01:20:34;;;;;;;47.60;17.20;;;2.60;99.90;;;;;;5052302;28;20021;-48
2023/01/27 01:22:59;;;;;;;35.30;14.27;;;2.70;99.90;;;;;;5051391;28;20029;-48
2023/01/27 01:25:25;;;;;;;44.88;16.67;;;2.70;99.90;;;;;;5051800;28;20025;-47
2023/01/27 01:27:50;;;;;;;43.75;15.95;;;2.70;99.90;;;;;;5051610;28;20075;-47
2023/01/27 01:30:16;;;;;;;39.33;15.00;;;2.70;99.90;;;;;;5052516;28;20021;-47
2023/01/27 01:32:42;;;;;;;45.20;16.17;;;2.70;99.90;;;;;;5052249;28;20305;-47
2023/01/27 01:35:08;;;;;;;50.28;17.92;;;2.80;99.90;;;;;;5051770;28;20033;-47
2023/01/27 01:37:33;;;;;;;39.40;15.13;;;2.80;99.90;;;;;;5050847;28;20033;-47
2023/01/27 01:39:59;;;;;;;46.53;14.93;;;2.70;99.90;;;;;;5052126;28;20105;-49
2023/01/27 01:42:24;;;;;;;54.70;17.00;;;2.80;99.90;;;;;;5051926;28;20017;-47
2023/01/27 01:45:10;;;;;;;40.55;17.98;;;2.80;99.90;;;;;;5051532;28;20024;-47
2023/01/27 01:47:36;;;;;;;47.63;16.45;;;2.80;99.90;;;;;;5051834;28;20080;-47
2023/01/27 01:50:02;;;;;;;44.85;16.60;;;2.80;99.90;;;;;;5051916;28;20163;-47
2023/01/27 01:52:28;;;;;;;45.03;15.95;;;2.70;99.90;;;;;;5051849;28;20040;-50
2023/01/27 01:54:55;;;;;;;46.83;16.05;;;2.70;99.90;;;;;;5051676;28;20043;-47
2023/01/27 01:57:36;;;;;;;45.47;16.65;;;2.80;99.90;;;;;;5051789;28;20021;-49
2023/01/27 02:00:06;;;;;;;43.50;15.35;;;2.80;99.90;;;;;;5051720;28;20021;-47
2023/01/27 02:02:33;;;;;;;42.75;14.80;;;2.80;99.90;;;;;;5050262;28;20044;-47
2023/01/27 02:05:27;;;;;;;36.58;13.30;;;2.80;99.90;;;;;;5050981;28;20025;-47
2023/01/27 02:07:58;;;;;;;36.00;14.52;;;2.80;99.90;;;;;;5040728;28;20413;-48
2023/01/27 02:10:24;;;;;;;42.15;15.65;;;2.80;99.90;;;;;;5051370;28;20024;-48
2023/01/27 02:12:49;;;;;;;38.15;14.55;;;2.80;99.90;;;;;;5051464;28;20501;-47
2023/01/27 02:15:16;;;;;;;32.17;14.15;;;2.80;99.90;;;;;;5050902;28;20102;-48
2023/01/27 02:17:42;;;;;;;31.30;13.13;;;2.80;99.90;;;;;;5051300;28;20146;-48
2023/01/27 02:20:14;;;;;;;36.17;13.32;;;2.90;99.90;;;;;;5051623;28;20049;-50
2023/01/27 02:23:22;;;;;;;37.40;14.40;;;2.80;99.90;;;;;;5051699;28;20029;-50
2023/01/27 02:25:56;;;;;;;34.70;13.48;;;2.90;99.90;;;;;;5012470;28;20505;-47
2023/01/27 02:28:26;;;;;;;38.67;13.55;;;2.90;99.90;;;;;;5051156;28;20061;-47
2023/01/27 02:30:51;;;;;;;38.65;13.85;;;2.90;99.90;;;;;;5051029;28;20025;-47
2023/01/27 02:33:17;;;;;;;35.70;13.32;;;2.90;99.90;;;;;;5050860;28;20040;-48
2023/01/27 02:35:57;;;;;;;35.63;13.43;;;2.90;99.90;;;;;;5050623;28;20060;-47
2023/01/27 02:38:24;;;;;;;37.03;11.85;;;3.00;99.90;;;;;;5050819;28;20021;-50
2023/01/27 02:40:53;;;;;;;29.00;13.15;;;3.00;99.90;;;;;;5051016;28;20309;-48
2023/01/27 02:43:18;;;;;;;31.20;12.70;;;3.00;99.90;;;;;;5050892;28;20025;-48
2023/01/27 02:45:46;;;;;;;29.92;11.80;;;3.00;99.90;;;;;;5050292;28;20079;-47
2023/01/27 02:48:11;;;;;;;32.78;13.82;;;3.00;99.90;;;;;;5050965;28;20083;-47
2023/01/27 02:50:37;;;;;;;29.88;12.30;;;3.00;99.90;;;;;;5050552;28;20461;-47
2023/01/27 02:53:03;;;;;;;30.05;12.65;;;3.00;99.90;;;;;;5050429;28;20028;-47
2023/01/27 02:55:28;;;;;;;25.08;11.38;;;3.00;99.90;;;;;;5050546;28;20100;-48
2023/01/27 02:57:54;;;;;;;32.70;13.13;;;3.00;99.90;;;;;;5050440;28;20021;-47
2023/01/27 03:00:19;;;;;;;26.77;12.75;;;3.00;99.90;;;;;;5050377;28;20048;-47
2023/01/27 03:02:45;;;;;;;27.67;12.40;;;3.10;99.90;;;;;;5050375;28;20029;-47
2023/01/27 03:05:10;;;;;;;24.60;10.90;;;3.10;99.90;;;;;;5049867;28;20017;-47
2023/01/27 03:07:36;;;;;;;24.77;10.63;;;3.10;99.90;;;;;;5050316;28;20087;-48
2023/01/27 03:10:02;;;;;;;23.30;10.13;;;3.10;99.90;;;;;;5050593;28;20029;-48
2023/01/27 03:12:27;;;;;;;28.17;10.95;;;3.10;99.90;;;;;;5050199;28;20632;-47
2023/01/27 03:20:22;;;;;;;24.10;10.07;;;3.10;99.90;;;;;;5050422;28;20039;-47
2023/01/27 03:22:48;;;;;;;23.48;9.88;;;3.10;99.90;;;;;;5050245;28;20025;-48
2023/01/27 03:25:14;;;;;;;24.52;10.85;;;3.10;99.90;;;;;;5049735;28;20394;-48
2023/01/27 03:27:40;;;;;;;20.95;9.13;;;3.10;99.90;;;;;;5048481;28;20021;-47
2023/01/27 03:30:06;;;;;;;21.17;9.60;;;3.10;99.90;;;;;;5050085;28;20025;-48
2023/01/27 03:32:32;;;;;;;23.45;8.73;;;3.10;99.90;;;;;;5049795;28;20112;-48
2023/01/27 03:34:59;;;;;;;21.73;10.25;;;3.10;99.90;;;;;;5049529;28;20107;-47
2023/01/27 03:48:33;;;;;;;16.83;9.45;;;3.10;99.90;;;;;;5050126;28;20039;-48
2023/01/27 03:50:59;;;;;;;15.88;7.60;;;3.20;99.90;;;;;;5049089;28;20033;-48
2023/01/27 03:53:25;;;;;;;19.80;7.93;;;3.20;99.90;;;;;;5049485;28;20033;-48
2023/01/27 03:55:50;;;;;;;15.95;7.10;;;3.20;99.90;;;;;;5049173;28;20050;-47
2023/01/27 03:58:24;;;;;;;16.33;7.15;;;3.20;99.90;;;;;;5049452;28;20029;-47
2023/01/27 04:00:55;;;;;;;13.65;7.38;;;3.20;99.90;;;;;;5049807;28;20101;-47
2023/01/27 04:09:05;;;;;;;15.10;6.70;;;3.20;99.90;;;;;;5049802;28;20044;-49
2023/01/27 04:14:16;;;;;;;12.18;6.43;;;3.20;99.90;;;;;;5049824;28;20114;-50
2023/01/27 04:16:41;;;;;;;14.90;6.95;;;3.20;99.90;;;;;;5048732;28;20494;-48
2023/01/27 04:19:09;;;;;;;12.88;5.47;;;3.20;99.90;;;;;;5049563;28;20028;-49
2023/01/27 04:21:34;;;;;;;12.55;6.43;;;3.20;99.90;;;;;;5049724;28;20026;-48
2023/01/27 04:24:00;;;;;;;15.80;7.40;;;3.30;99.90;;;;;;5049676;28;20013;-49
2023/01/27 04:26:33;;;;;;;14.50;6.43;;;3.30;99.90;;;;;;5048756;28;20031;-46
2023/01/27 04:29:00;;;;;;;12.65;6.97;;;3.30;99.90;;;;;;5049319;28;20024;-48
2023/01/27 04:31:26;;;;;;;13.60;5.88;;;3.30;99.90;;;;;;5049156;28;20025;-50
2023/01/27 04:33:51;;;;;;;12.60;6.70;;;3.30;99.90;;;;;;5049241;28;20179;-48
2023/01/27 04:36:17;;;;;;;13.90;6.70;;;3.30;99.90;;;;;;5048676;28;20025;-50
2023/01/27 04:38:42;;;;;;;12.95;7.20;;;3.30;99.90;;;;;;5049549;28;20021;-48
2023/01/27 04:41:08;;;;;;;15.13;7.65;;;3.30;99.90;;;;;;5049134;28;20017;-48
2023/01/27 04:43:34;;;;;;;15.50;7.03;;;3.30;99.90;;;;;;5049322;28;20017;-47
2023/01/27 04:46:00;;;;;;;14.63;7.18;;;3.30;99.90;;;;;;5048630;28;20021;-48
2023/01/27 04:48:25;;;;;;;14.75;7.03;;;3.30;99.90;;;;;;5049224;28;20441;-48
2023/01/27 04:50:51;;;;;;;17.83;8.63;;;3.30;99.90;;;;;;5048973;28;20033;-47
2023/01/27 04:53:16;;;;;;;16.38;7.05;;;3.30;99.90;;;;;;5049171;28;20021;-48
2023/01/27 04:55:48;;;;;;;15.25;7.30;;;3.30;99.90;;;;;;5048446;28;20036;-47
2023/01/27 04:58:16;;;;;;;15.80;7.80;;;3.30;99.90;;;;;;5048752;28;20025;-48
2023/01/27 05:00:43;;;;;;;15.82;7.75;;;3.40;99.90;;;;;;5048843;28;20064;-48
2023/01/27 05:03:10;;;;;;;14.25;7.30;;;3.40;99.90;;;;;;5051478;28;20021;-48
2023/01/27 05:05:36;;;;;;;12.32;6.53;;;3.40;99.90;;;;;;5052353;28;20017;-47
2023/01/27 05:08:06;;;;;;;15.05;6.57;;;3.40;99.90;;;;;;5052789;28;20077;-48
2023/01/27 05:10:31;;;;;;;12.25;6.70;;;3.40;99.90;;;;;;5052614;28;20028;-48
2023/01/27 05:12:58;;;;;;;14.30;6.90;;;3.40;99.90;;;;;;5052578;28;20029;-47
2023/01/27 05:15:24;;;;;;;15.45;6.97;;;3.40;99.90;;;;;;5051977;28;20103;-47
2023/01/27 05:17:49;;;;;;;11.18;5.97;;;3.40;99.90;;;;;;5052467;28;20025;-50
2023/01/27 05:20:15;;;;;;;13.85;6.20;;;3.40;99.90;;;;;;5052593;28;20032;-47
2023/01/27 05:22:41;;;;;;;17.60;6.68;;;3.50;99.90;;;;;;5052390;28;20029;-48
2023/01/27 05:25:07;;;;;;;12.82;6.15;;;3.60;99.90;;;;;;5051860;28;20047;-48
2023/01/27 05:27:33;;;;;;;12.77;6.80;;;3.60;99.90;;;;;;5052359;28;20037;-47
2023/01/27 05:29:59;;;;;;;10.23;5.82;;;3.60;99.90;;;;;;5052085;28;20100;-49
2023/01/27 05:32:25;;;;;;;11.13;5.97;;;3.60;99.90;;;;;;5052379;28;20108;-47
2023/01/27 05:34:50;;;;;;;10.55;6.15;;;3.60;99.90;;;;;;5051784;28;20036;-47
2023/01/27 05:37:16;;;;;;;11.30;5.53;;;3.70;99.90;;;;;;5052221;28;20029;-47
2023/01/27 05:39:41;;;;;;;11.30;5.68;;;3.70;99.90;;;;;;5050606;28;20431;-48
2023/01/27 05:42:07;;;;;;;10.48;5.88;;;3.70;99.90;;;;;;5051818;28;20036;-49
2023/01/27 05:44:32;;;;;;;10.63;6.32;;;3.60;99.90;;;;;;5051803;28;20029;-48
2023/01/27 05:46:59;;;;;;;8.85;4.70;;;3.70;99.90;;;;;;5051780;28;20425;-47
2023/01/27 05:49:24;;;;;;;9.30;4.85;;;3.70;99.90;;;;;;5051865;28;20029;-47
2023/01/27 05:51:50;;;;;;;8.13;4.35;;;3.70;99.90;;;;;;5051706;28;20036;-48
2023/01/27 05:54:15;;;;;;;10.13;5.20;;;3.70;99.90;;;;;;5051636;28;20379;-48
2023/01/27 05:56:41;;;;;;;9.30;5.03;;;3.70;99.90;;;;;;5051382;28;20021;-47
2023/01/27 05:59:08;;;;;;;6.95;3.72;;;3.70;99.90;;;;;;5051645;28;20029;-47
2023/01/27 06:01:34;;;;;;;9.10;4.57;;;3.70;99.90;;;;;;5051601;28;20059;-47
2023/01/27 06:04:00;;;;;;;7.50;3.50;;;3.60;99.90;;;;;;5051642;28;20025;-47
2023/01/27 06:06:27;;;;;;;5.78;3.22;;;3.60;99.90;;;;;;5051186;28;20052;-47
2023/01/27 06:08:53;;;;;;;5.57;2.75;;;3.70;99.90;;;;;;5051711;28;20486;-48
2023/01/27 06:11:19;;;;;;;5.60;3.00;;;3.70;99.90;;;;;;5051777;28;20036;-47
2023/01/27 06:13:46;;;;;;;5.15;3.47;;;3.70;99.90;;;;;;5051116;28;20032;-48
2023/01/27 06:16:16;;;;;;;3.40;2.65;;;3.70;99.90;;;;;;5051064;28;20025;-49
2023/01/27 06:18:42;;;;;;;4.18;2.92;;;3.70;99.90;;;;;;5051343;28;20059;-46
2023/01/27 06:21:09;;;;;;;4.10;3.25;;;3.70;99.90;;;;;;5051284;28;20033;-46
2023/01/27 06:23:35;;;;;;;6.18;2.70;;;3.70;99.90;;;;;;5051441;28;20025;-50
2023/01/27 06:26:04;;;;;;;2.85;1.92;;;3.70;99.90;;;;;;5050905;28;20032;-49
2023/01/27 06:28:29;;;;;;;3.55;2.13;;;3.60;99.90;;;;;;5051333;28;20368;-48
2023/01/27 06:31:03;;;;;;;3.38;2.05;;;3.60;99.90;;;;;;5051516;28;20039;-48
2023/01/27 06:33:28;;;;;;;4.63;2.97;;;3.70;99.90;;;;;;5051420;28;20052;-47
2023/01/27 06:36:03;;;;;;;4.22;2.10;;;3.70;99.90;;;;;;5050679;28;20521;-47
2023/01/27 06:38:29;;;;;;;3.28;2.03;;;3.70;99.90;;;;;;5050986;28;20441;-47
2023/01/27 06:40:54;;;;;;;3.97;1.95;;;3.70;99.90;;;;;;5050865;28;20025;-47
2023/01/27 06:43:20;;;;;;;4.80;2.03;;;3.70;99.90;;;;;;5050846;28;20013;-47
2023/01/27 06:45:51;;;;;;;5.05;2.53;;;3.70;99.90;;;;;;5049109;28;20028;-48
2023/01/27 06:48:16;;;;;;;4.32;2.47;;;3.70;99.90;;;;;;5051208;28;20091;-47
2023/01/27 06:50:42;;;;;;;3.15;2.85;;;3.60;99.90;;;;;;5051094;28;20491;-49
2023/01/27 06:53:08;;;;;;;4.13;2.20;;;3.70;99.90;;;;;;5051137;28;20028;-47
2023/01/27 06:55:40;;;;;;;3.53;2.42;;;3.60;99.90;;;;;;5050592;28;20033;-48
2023/01/27 06:58:06;;;;;;;7.10;3.10;;;3.60;99.90;;;;;;5050906;28;20032;-47
2023/01/27 07:00:32;;;;;;;4.85;2.60;;;3.60;99.90;;;;;;5050529;28;20028;-47
2023/01/27 07:02:57;;;;;;;7.38;2.42;;;3.60;99.90;;;;;;5050305;28;20142;-48
2023/01/27 07:05:23;;;;;;;6.13;2.95;;;3.60;99.90;;;;;;5050051;28;20154;-47
2023/01/27 07:07:49;;;;;;;4.43;2.67;;;3.60;99.90;;;;;;5050571;28;20021;-47
2023/01/27 07:10:15;;;;;;;3.90;2.85;;;3.60;99.90;;;;;;5050583;28;20036;-48
2023/01/27 07:12:40;;;;;;;5.80;2.67;;;3.60;99.90;;;;;;5048990;28;20041;-47
2023/01/27 07:15:07;;;;;;;5.38;2.97;;;3.70;99.90;;;;;;5049939;28;20025;-48
2023/01/27 07:17:33;;;;;;;7.13;3.60;;;3.70;99.90;;;;;;5050451;28;20032;-48
2023/01/27 07:19:59;;;;;;;8.15;3.17;;;3.70;99.90;;;;;;5050161;28;20028;-48
2023/01/27 07:22:25;;;;;;;10.40;3.03;;;3.60;99.90;;;;;;5050058;28;20383;-47
2023/01/27 07:24:50;;;;;;;5.10;2.63;;;3.60;99.90;;;;;;5049022;28;20495;-48
2023/01/27 07:27:16;;;;;;;5.47;3.38;;;3.70;99.90;;;;;;5049926;28;20035;-49
2023/01/27 07:29:41;;;;;;;4.78;3.00;;;3.70;99.90;;;;;;5050005;28;20024;-47
2023/01/27 07:32:07;;;;;;;5.53;2.95;;;3.70;99.90;;;;;;5049882;28;20253;-47
2023/01/27 07:34:32;;;;;;;8.10;3.10;;;3.70;99.90;;;;;;5049734;28;20032;-47
2023/01/27 07:36:58;;;;;;;10.60;2.85;;;3.70;99.90;;;;;;5049768;28;20033;-50
2023/01/27 07:39:25;;;;;;;7.32;3.28;;;3.70;99.90;;;;;;5049996;28;20048;-49
2023/01/27 07:41:51;;;;;;;7.72;3.35;;;3.70;99.90;;;;;;5049736;28;20643;-47
2023/01/27 07:44:17;;;;;;;7.15;3.10;;;3.70;99.90;;;;;;5049570;28;20044;-47
2023/01/27 07:46:43;;;;;;;9.18;2.88;;;3.70;99.90;;;;;;5048021;28;20276;-47
2023/01/27 07:49:09;;;;;;;5.53;3.10;;;3.70;99.90;;;;;;5049740;28;20100;-48
2023/01/27 07:51:35;;;;;;;5.20;2.85;;;3.70;99.90;;;;;;5049473;28;20044;-47
2023/01/27 07:54:00;;;;;;;4.82;2.75;;;3.70;99.90;;;;;;5049706;28;20029;-47
2023/01/27 07:56:26;;;;;;;10.05;3.42;;;3.60;99.90;;;;;;5049162;28;20428;-48
2023/01/27 07:58:52;;;;;;;7.85;3.10;;;3.70;99.90;;;;;;5049808;28;20721;-46
2023/01/27 08:01:18;;;;;;;6.90;3.30;;;3.70;99.90;;;;;;5049480;28;20025;-50
2023/01/27 08:03:43;;;;;;;5.57;2.88;;;3.70;99.90;;;;;;5049835;28;20017;-48
2023/01/27 08:06:11;;;;;;;4.80;2.63;;;3.80;99.90;;;;;;5049200;28;20013;-47
2023/01/27 08:08:37;;;;;;;8.88;2.92;;;3.80;99.90;;;;;;5049458;28;20027;-48
2023/01/27 08:11:07;;;;;;;4.82;2.58;;;3.80;99.90;;;;;;5049353;28;20029;-47
2023/01/27 08:13:34;;;;;;;4.78;2.60;;;3.80;99.90;;;;;;5049522;28;20263;-47
2023/01/27 08:16:02;;;;;;;11.57;3.10;;;3.80;99.90;;;;;;5048864;28;20079;-48
2023/01/27 08:18:28;;;;;;;3.90;2.03;;;3.80;99.90;;;;;;5049290;28;20056;-47
2023/01/27 08:20:58;;;;;;;4.68;2.30;;;3.80;99.90;;;;;;5049499;28;20017;-47
2023/01/27 08:23:23;;;;;;;6.45;2.50;;;3.80;99.90;;;;;;5049127;28;20029;-48
2023/01/27 08:25:54;;;;;;;7.07;2.22;;;3.80;99.90;;;;;;5048795;28;20082;-46
2023/01/27 08:28:20;;;;;;;3.47;2.33;;;3.80;99.90;;;;;;5049216;28;20155;-51
2023/01/27 08:30:46;;;;;;;5.50;2.45;;;3.80;99.90;;;;;;5049308;28;20036;-50
2023/01/27 08:33:12;;;;;;;5.72;2.20;;;3.80;99.90;;;;;;5049308;28;20056;-47
2023/01/27 08:35:43;;;;;;;5.78;2.40;;;3.90;99.90;;;;;;5048847;28;20117;-47
2023/01/27 08:38:09;;;;;;;;;;;3.90;99.90;;;;;;5053574;28;20475;-49
2023/01/27 08:40:34;;;;;;;3.00;1.90;;;3.90;99.90;;;;;;5053172;28;20003;-47
2023/01/27 08:43:00;;;;;;;6.25;2.10;;;3.90;99.90;;;;;;5053450;28;20017;-48
2023/01/27 08:45:26;;;;;;;4.50;2.40;;;3.90;99.90;;;;;;5052667;28;20142;-48
2023/01/27 08:47:52;;;;;;;4.45;2.00;;;3.90;99.90;;;;;;5053516;28;20426;-49
2023/01/27 08:50:18;;;;;;;5.93;2.28;;;3.90;99.90;;;;;;5051886;28;20130;-49
2023/01/27 08:52:43;;;;;;;3.97;2.67;;;3.90;99.90;;;;;;5053050;28;20028;-51
2023/01/27 08:55:09;;;;;;;7.45;2.17;;;3.90;99.90;;;;;;5052298;28;20025;-48
2023/01/27 08:57:35;;;;;;;5.35;2.40;;;4.00;99.90;;;;;;5052767;28;20082;-49
2023/01/27 09:00:01;;;;;;;6.85;2.22;;;3.90;99.90;;;;;;5052823;28;20025;-49
2023/01/27 09:02:27;;;;;;;4.88;3.33;;;4.00;99.90;;;;;;5052733;28;20107;-47
2023/01/27 09:04:52;;;;;;;4.10;1.77;;;4.00;99.90;;;;;;5052388;28;20048;-51
2023/01/27 09:07:18;;;;;;;3.22;1.77;;;4.00;99.90;;;;;;5052663;28;20532;-48
2023/01/27 09:09:47;;;;;;;4.72;2.10;;;4.00;99.90;;;;;;5052579;28;20040;-48
2023/01/27 09:12:12;;;;;;;5.63;2.05;;;4.00;99.90;;;;;;5052459;28;20227;-48
2023/01/27 09:14:39;;;;;;;3.50;1.73;;;4.00;99.90;;;;;;5052007;28;20578;-48
2023/01/27 09:17:04;;;;;;;4.65;1.90;;;4.00;99.90;;;;;;5052708;28;20021;-51
2023/01/27 09:19:30;;;;;;;7.90;3.10;;;4.00;99.90;;;;;;5052525;28;20032;-48
2023/01/27 09:21:55;;;;;;;7.95;1.85;;;4.00;99.90;;;;;;5052321;28;20033;-49
2023/01/27 09:24:21;;;;;;;8.45;2.10;;;4.00;99.90;;;;;;5052322;28;20046;-48
2023/01/27 09:26:47;;;;;;;3.22;1.85;;;4.00;99.90;;;;;;5051730;28;20517;-48
2023/01/27 09:29:12;;;;;;;4.13;1.80;;;4.00;99.90;;;;;;5052437;28;20033;-50
2023/01/27 09:31:38;;;;;;;3.00;1.95;;;3.90;99.90;;;;;;5052128;28;20121;-48
2023/01/27 09:34:03;;;;;;;4.38;1.70;;;4.00;99.90;;;;;;5052577;28;20025;-47
2023/01/27 09:36:31;;;;;;;3.65;1.55;;;3.90;99.90;;;;;;5051762;28;20029;-48
2023/01/27 09:39:04;;;;;;;10.52;1.83;;;3.90;99.90;;;;;;5052280;28;20386;-51
2023/01/27 09:41:41;;;;;;;4.60;1.55;;;3.90;99.90;;;;;;5052162;28;20445;-48
2023/01/27 09:44:26;;;;;;;5.10;1.63;;;3.90;99.90;;;;;;5052350;28;20482;-51
2023/01/27 09:47:26;;;;;;;5.35;1.35;;;3.90;99.90;;;;;;5052012;28;20021;-49
2023/01/27 09:50:14;;;;;;;5.63;1.33;;;3.90;99.90;;;;;;5043312;28;20082;-48
2023/01/27 09:53:00;;;;;;;3.38;1.58;;;3.90;99.90;;;;;;5051960;28;20020;-48
2023/01/27 09:55:49;;;;;;;4.70;1.20;;;3.80;99.90;;;;;;5051283;28;20492;-50
2023/01/27 09:58:39;;;;;;;3.42;1.30;;;3.80;99.90;;;;;;5051639;28;20398;-50
2023/01/27 10:01:35;;;;;;;1.63;1.38;;;3.90;99.90;;;;;;5051858;28;20017;-49
2023/01/27 10:04:30;;;;;;;2.38;1.42;;;3.90;99.90;;;;;;5051655;28;20021;-51
2023/01/27 10:07:16;;;;;;;4.57;1.52;;;4.00;99.90;;;;;;5051326;28;20104;-47
2023/01/27 10:10:16;;;;;;;2.95;1.20;;;3.90;99.90;;;;;;5051634;28;20021;-51
2023/01/27 10:13:00;;;;;;;2.50;1.27;;;3.80;99.90;;;;;;5051537;28;20103;-47
2023/01/27 10:15:43;;;;;;;1.42;1.15;;;3.90;99.90;;;;;;5050853;28;20021;-49
2023/01/27 10:18:15;;;;;;;2.47;1.15;;;3.90;99.90;;;;;;5051391;28;20309;-48
2023/01/27 10:21:13;;;;;;;3.78;1.25;;;3.90;99.90;;;;;;5051545;28;20044;-48
2023/01/27 10:23:59;;;;;;;2.17;1.38;;;4.00;99.90;;;;;;5051649;28;20100;-50
2023/01/27 10:26:41;;;;;;;2.78;1.25;;;3.90;99.90;;;;;;5050948;28;20025;-47
2023/01/27 10:29:24;;;;;;;3.65;1.40;;;4.00;99.90;;;;;;5051310;28;20100;-48
2023/01/27 10:32:04;;;;;;;2.92;1.40;;;4.00;99.90;;;;;;5051363;28;20100;-48
2023/01/27 10:34:36;;;;;;;4.97;1.17;;;4.00;99.90;;;;;;5049786;28;20025;-48
2023/01/27 10:37:41;;;;;;;3.63;1.88;;;4.00;99.90;;;;;;5051049;28;20376;-49
2023/01/27 10:40:33;;;;;;;4.68;1.90;;;4.00;99.90;;;;;;5050965;28;20158;-48
2023/01/27 10:43:09;;;;;;;4.95;1.67;;;4.00;99.90;;;;;;5050951;28;20028;-48
2023/01/27 10:45:54;;;;;;;4.40;1.58;;;4.10;99.90;;;;;;5050730;28;20028;-48
2023/01/27 10:48:46;;;;;;;4.20;1.45;;;4.00;99.90;;;;;;5050915;28;20021;-50
2023/01/27 10:51:12;;;;;;;1.65;1.08;;;4.10;99.90;;;;;;5050640;28;20091;-47
2023/01/27 10:54:02;;;;;;;1.70;1.33;;;4.10;99.90;;;;;;5049570;28;20025;-48
2023/01/27 10:56:36;;;;;;;3.35;1.20;;;4.10;99.90;;;;;;5050168;28;20043;-49
2023/01/27 10:59:04;;;;;;;1.55;1.10;;;4.10;99.90;;;;;;5049240;28;20350;-47
2023/01/27 11:02:02;;;;;;;4.32;1.40;;;4.10;99.90;;;;;;5050637;28;20052;-47
2023/01/27 11:05:01;;;;;;;6.07;1.02;;;4.20;99.90;;;;;;5025154;28;20052;-47
2023/01/27 11:07:28;;;;;;;1.08;0.93;;;4.20;99.90;;;;;;5017268;28;20509;-47
2023/01/27 11:09:56;;;;;;;4.95;1.00;;;4.20;99.90;;;;;;5050270;28;20036;-47
2023/01/27 11:12:31;;;;;;;5.10;1.30;;;4.20;99.90;;;;;;5048988;28;20025;-47
2023/01/27 11:14:59;;;;;;;3.10;0.98;;;4.20;99.90;;;;;;5049757;28;20424;-48
2023/01/27 11:17:46;;;;;;;4.85;1.13;;;4.20;99.90;;;;;;5049753;28;20065;-47
2023/01/27 11:20:21;;;;;;;3.33;1.00;;;4.20;99.90;;;;;;5050125;28;20025;-47
2023/01/27 11:22:55;;;;;;;5.60;1.20;;;4.20;99.90;;;;;;5050107;28;20021;-48
2023/01/27 11:25:33;;;;;;;1.48;1.00;;;4.20;99.90;;;;;;5049644;28;20111;-48
2023/01/27 11:28:23;;;;;;;5.65;1.48;;;4.20;99.90;;;;;;5050070;28;20021;-47
2023/01/27 11:31:10;;;;;;;4.43;1.40;;;4.20;99.90;;;;;;5050256;28;20482;-48
2023/01/27 11:33:43;;;;;;;5.10;1.23;;;4.20;99.90;;;;;;5050087;28;20036;-48
2023/01/27 11:36:08;;;;;;;1.48;1.00;;;4.10;99.90;;;;;;5049416;28;20486;-47
2023/01/27 11:38:34;;;;;;;2.85;1.23;;;4.10;99.90;;;;;;5049925;28;20102;-47
2023/01/27 11:41:00;;;;;;;2.28;1.33;;;4.10;99.90;;;;;;5049753;28;20028;-46
2023/01/27 11:43:27;;;;;;;2.65;1.23;;;4.10;99.90;;;;;;5049816;28;20103;-49
2023/01/27 11:46:00;;;;;;;4.30;1.38;;;4.10;99.90;;;;;;5049657;28;20048;-48
2023/01/27 11:48:35;;;;;;;4.00;1.50;;;4.00;99.90;;;;;;5047642;28;20021;-47
2023/01/27 11:51:02;;;;;;;8.20;1.58;;;4.10;99.90;;;;;;5049592;28;20039;-47
2023/01/27 11:53:35;;;;;;;6.15;1.20;;;4.00;99.90;;;;;;5049777;28;20044;-49
2023/01/27 11:56:09;;;;;;;5.20;1.60;;;4.00;99.90;;;;;;5049829;28;20082;-49
2023/01/27 11:59:00;;;;;;;4.60;1.48;;;4.00;99.90;;;;;;5049984;28;20632;-51
2023/01/27 12:01:38;;;;;;;9.02;2.10;;;4.10;99.90;;;;;;5048164;28;20482;-47
2023/01/27 12:04:11;;;;;;;4.93;2.17;;;4.10;99.90;;;;;;5049514;28;20024;-50
2023/01/27 12:06:44;;;;;;;7.97;1.55;;;4.00;99.90;;;;;;5048941;28;20025;-48
2023/01/27 12:09:35;;;;;;;5.13;1.38;;;4.00;99.90;;;;;;5048392;28;20110;-47
2023/01/27 12:12:13;;;;;;;2.92;1.02;;;3.90;99.90;;;;;;5049037;28;20491;-47
2023/01/27 12:14:39;;;;;;;4.13;1.40;;;3.90;99.90;;;;;;5047610;28;20245;-50
2023/01/27 12:17:06;;;;;;;3.63;1.55;;;3.90;99.90;;;;;;5047690;28;20029;-47
2023/01/27 12:19:39;;;;;;;2.42;1.40;;;3.90;99.90;;;;;;5049301;28;20025;-47
2023/01/27 12:22:29;;;;;;;5.13;1.30;;;4.00;99.90;;;;;;5049523;28;20060;-49
2023/01/27 12:24:59;;;;;;;3.88;1.73;;;3.90;99.90;;;;;;5049002;28;20458;-48
2023/01/27 12:27:28;;;;;;;4.90;1.27;;;3.90;99.90;;;;;;5049715;28;20033;-49
2023/01/27 12:29:58;;;;;;;5.95;1.25;;;3.90;99.90;;;;;;5049572;28;20477;-50
2023/01/27 12:32:40;;;;;;;3.72;1.25;;;3.90;99.90;;;;;;5049422;28;20033;-47
2023/01/27 12:35:20;;;;;;;5.05;1.15;;;3.80;99.90;;;;;;5048845;28;20033;-47
2023/01/27 12:37:48;;;;;;;6.38;1.55;;;3.90;99.90;;;;;;5049423;28;20474;-49
2023/01/27 12:40:24;;;;;;;2.47;0.82;;;3.90;99.90;;;;;;5049400;28;20041;-49
2023/01/27 12:43:09;;;;;;;3.08;1.30;;;3.80;99.90;;;;;;5049228;28;20048;-48
2023/01/27 12:45:37;;;;;;;2.72;1.42;;;3.80;99.90;;;;;;5048737;28;20017;-47
2023/01/27 12:48:08;;;;;;;1.88;1.10;;;3.80;99.90;;;;;;5049350;28;20104;-47
2023/01/27 12:50:37;;;;;;;3.72;1.15;;;3.90;99.90;;;;;;5048890;28;20041;-47
2023/01/27 12:53:14;;;;;;;6.47;1.50;;;3.90;99.90;;;;;;5049028;28;20078;-48
2023/01/27 12:55:59;;;;;;;12.15;1.65;;;3.90;99.90;;;;;;5048607;28;20028;-49
2023/01/27 12:58:37;;;;;;;6.25;1.83;;;3.80;99.90;;;;;;5049054;28;20049;-51
2023/01/27 13:01:33;;;;;;;7.85;1.30;;;3.90;99.90;;;;;;5048984;28;20066;-48
2023/01/27 13:04:08;;;;;;;6.32;1.80;;;3.90;99.90;;;;;;5042408;28;20033;-50
2023/01/27 13:06:42;;;;;;;3.42;1.70;;;3.90;99.90;;;;;;5048906;28;20029;-47
2023/01/27 13:09:45;;;;;;;9.98;1.55;;;3.90;99.90;;;;;;5049085;28;20021;-48
2023/01/27 13:12:36;;;;;;;5.45;1.15;;;3.90;99.90;;;;;;5030391;28;20037;-48
2023/01/27 13:15:04;;;;;;;7.18;1.27;;;3.80;99.90;;;;;;5048337;28;20486;-49
2023/01/27 13:17:43;;;;;;;3.53;1.30;;;3.90;99.90;;;;;;5048837;28;20032;-50
2023/01/27 13:20:15;;;;;;;4.38;1.15;;;3.80;99.90;;;;;;5048827;28;20021;-47
2023/01/27 13:22:45;;;;;;;5.85;1.27;;;3.90;99.90;;;;;;5049182;28;20362;-47
2023/01/27 13:25:21;;;;;;;4.90;1.15;;;3.90;99.90;;;;;;5050680;28;20029;-51
2023/01/27 13:27:48;;;;;;;3.25;1.08;;;4.00;99.90;;;;;;5052693;28;20032;-49
2023/01/27 13:30:29;;;;;;;4.85;1.60;;;3.90;99.90;;;;;;5052384;28;20163;-50
2023/01/27 13:32:59;;;;;;;6.15;1.08;;;3.90;99.90;;;;;;5052071;28;20028;-50
2023/01/27 13:35:52;;;;;;;4.35;1.35;;;4.00;99.90;;;;;;5051944;28;20098;-49
2023/01/27 13:38:24;;;;;;;1.27;1.02;;;4.00;99.90;;;;;;5051592;28;20490;-47
2023/01/27 13:40:50;;;;;;;6.95;1.55;;;4.00;99.90;;;;;;5051959;28;20021;-47